Palermo, Italy
Current Conditions -  °F | °C
As of 11:20 AM on Saturday 20 Dec 2014 (Local Time) from LICJ Reporting Station
Scattered Clouds Scattered Clouds  
Wind Chill: 63°   Ceiling: Unl
Heat Index: 63°   Visibility: 6mi
Dew Point: 54°   Wind: 10mph
Humidity: 72%   Direction: 190°S
Pressure: 30.27"   Gusts: NA
Location:  38.12°N, 13.36°E
Report Text: LICJ 201020Z 19009KT 9999 SCT030 17/12 Q1025
Loading
Personal Weather Stations






























Interactive Weather Map New forecast layout! Learn more

10-Day Weather Forecast

Advertisements
Track Severe Weather on mobile